Peterson, Alabama
Current Conditions -  °F | °C
As of 1:53 AM on Monday 24 Nov 2014 (Local Time) from KTCL Reporting Station
Few Clouds Few Clouds  
Wind Chill: 65°   Ceiling: Unl
Heat Index: 65°   Visibility: 9mi
Dew Point: 60°   Wind: 15mph
Humidity: 84%   Direction: 190°S
Pressure: 29.67"   Gusts: NA
Location:  33.23°N, 87.42°W
Report Text: KTCL 240753Z AUTO 19013KT 9SM FEW017 18/16 A2967 RMK AO2 SLP046 T01830156
Loading
Personal Weather Stations






























Interactive Weather Map New forecast layout! Learn more

10-Day Weather Forecast

Advertisements
Track Severe Weather on mobile